Řízení letového provozu České republiky
Letiste: LKTB Aktualizace: 27.08.2016 15:00:19  UTC
 METAR LKTB 27.08. 15:00 ...
METAR LKTB 271500Z 16005KT CAVOK 28/14 Q1020 NOSIG RMK REG QNH 1017=
 TAF LKTB 27.08. 11:00 ...
TAF LKTB 271100Z 2712/2818 14008KT CAVOK      TEMPO 2721/2807 13004KT=